Time;durP1;ratioP1;P1;durP2;ratioP2;P2;SDS_P1;SDS_P2;PMS_P1;PMS_P2;Temp;Humidity;BMP_temperature;BMP_pressure;BME280_temperature;BME280_humidity;BME280_pressure;Samples;Min_cycle;Max_cycle;Signal;HPM_P1;HPM_P2
2022/02/27 10:40:51;;;;;;;13.55;6.87;;;;;;;6.17;86.69;102958.78;5307609;54;46767;-70
2022/02/27 10:46:06;;;;;;;6.83;3.87;;;;;;;6.25;86.88;102953.38;4980748;56;1132570;-70
2022/02/27 10:51:17;;;;;;;14.37;3.77;;;;;;;6.43;87.56;102953.42;4963202;57;1134800;-70
2022/02/27 10:56:23;;;;;;;11.68;4.95;;;;;;;6.50;84.64;102949.77;4948935;57;1137013;-71
2022/02/27 11:01:29;;;;;;;13.28;5.25;;;;;;;6.50;82.93;102950.64;4941992;57;1136705;-71
2022/02/27 11:06:35;;;;;;;12.53;4.67;;;;;;;6.57;81.69;102945.64;5016816;56;1136962;-71
2022/02/27 11:11:41;;;;;;;6.83;2.97;;;;;;;6.49;79.61;102941.02;5029449;57;1137726;-71
2022/02/27 11:16:50;;;;;;;50.27;26.33;;;;;;;6.50;78.53;102928.30;5023466;56;1134724;-71
2022/02/27 11:21:57;;;;;;;97.37;63.23;;;;;;;6.57;80.10;102927.23;4978915;57;1138915;-70
2022/02/27 11:27:07;;;;;;;18.90;8.00;;;;;;;6.68;74.18;102917.81;4975494;57;1138981;-72
2022/02/27 11:32:13;;;;;;;17.17;3.10;;;;;;;6.74;74.91;102916.34;5043608;56;1136981;-71
2022/02/27 11:37:48;;;;;;;5.43;3.10;;;;;;;6.87;73.28;102911.69;5023273;56;1136925;-70
2022/02/27 11:42:53;;;;;;;8.47;3.57;;;;;;;6.90;71.91;102908.50;4931475;57;1134821;-71
2022/02/27 11:48:00;;;;;;;6.17;3.43;;;;;;;7.01;74.18;102895.11;4932846;57;1134758;-70
2022/02/27 11:53:24;;;;;;;7.67;4.13;;;;;;;7.18;73.57;102899.95;4918514;57;1134970;-70
2022/02/27 11:58:34;;;;;;;11.43;6.67;;;;;;;7.32;73.57;102887.30;4915428;57;1134756;-72
2022/02/27 12:03:41;;;;;;;6.80;3.10;;;;;;;7.58;74.08;102883.50;4904712;56;1136910;-71
2022/02/27 12:08:55;;;;;;;3.40;1.70;;;;;;;7.78;73.43;102886.91;4846513;58;1134726;-70
2022/02/27 12:14:09;;;;;;;4.67;2.27;;;;;;;7.82;65.10;102882.39;4867547;58;1134588;-71
2022/02/27 12:19:32;;;;;;;8.10;3.17;;;;;;;7.83;65.92;102884.98;4856638;58;1255372;-73
2022/02/27 12:24:38;;;;;;;6.30;2.93;;;;;;;7.79;65.11;102868.88;4851517;57;1134686;-73
2022/02/27 12:29:49;;;;;;;9.10;5.83;;;;;;;8.03;66.15;102869.93;4854436;57;1134584;-72
2022/02/27 12:34:56;;;;;;;5.17;3.17;;;;;;;8.24;64.28;102869.30;4854696;58;1134744;-72
2022/02/27 12:40:03;;;;;;;9.10;3.00;;;;;;;8.29;59.10;102863.41;4856571;58;1134557;-72
2022/02/27 12:45:09;;;;;;;5.83;3.17;;;;;;;8.41;60.83;102864.37;4864458;58;1134617;-72
2022/02/27 12:50:24;;;;;;;4.57;2.73;;;;;;;8.57;60.90;102862.58;4797326;58;1134825;-72
2022/02/27 12:55:25;;;;;;;5.27;2.63;;;;;;;8.59;56.59;102853.70;4829350;58;1134647;-72
2022/02/27 13:00:34;;;;;;;13.32;3.70;;;;;;;8.66;58.50;102843.83;4837746;58;1134649;-71
2022/02/27 13:05:43;;;;;;;12.90;2.43;;;;;;;8.73;58.33;102839.61;4898573;57;1136922;-72
2022/02/27 13:10:49;;;;;;;5.30;2.13;;;;;;;8.89;58.41;102838.64;4859582;58;1136704;-72
2022/02/27 13:15:57;;;;;;;10.77;4.23;;;;;;;9.00;58.67;102836.98;4830671;57;1134768;-72
2022/02/27 13:21:07;;;;;;;5.90;2.40;;;;;;;9.09;50.14;102831.38;4877922;57;1136605;-72
2022/02/27 13:26:11;;;;;;;6.67;2.90;;;;;;;9.04;50.90;102831.98;4814872;57;1134758;-72
2022/02/27 13:31:23;;;;;;;4.72;2.92;;;;;;;9.03;52.07;102828.48;4900406;58;1134661;-74
2022/02/27 13:36:29;;;;;;;9.20;2.70;;;;;;;9.12;52.92;102826.00;4862705;57;1134953;-72
2022/02/27 13:41:40;;;;;;;2.92;2.30;;;;;;;9.19;53.49;102823.53;4926710;56;1134920;-72
2022/02/27 13:46:52;;;;;;;10.97;4.13;;;;;;;9.17;50.62;102816.12;4983512;57;1134543;-71
2022/02/27 13:51:59;;;;;;;6.63;3.23;;;;;;;9.16;51.68;102817.92;4986520;57;1136779;-71
2022/02/27 13:57:09;;;;;;;1.83;1.33;;;;;;;9.18;49.70;102819.16;5022980;56;1134568;-72
2022/02/27 14:02:30;;;;;;;2.50;1.80;;;;;;;9.10;48.21;102813.30;5033033;56;1134600;-71
2022/02/27 14:07:39;;;;;;;2.80;1.57;;;;;;;9.09;46.90;102811.12;5018392;56;1134563;-72
2022/02/27 14:12:58;;;;;;;7.33;3.40;;;;;;;9.14;46.86;102815.80;5020879;57;1134651;-72
2022/02/27 14:18:25;;;;;;;4.77;2.20;;;;;;;9.03;49.03;102815.73;5022900;56;1134659;-72
2022/02/27 14:23:33;;;;;;;6.15;2.37;;;;;;;9.14;50.39;102815.80;5017586;56;1134544;-72
2022/02/27 14:28:52;;;;;;;7.53;2.10;;;;;;;9.13;48.22;102806.61;5020598;56;1136775;-72
2022/02/27 14:34:05;;;;;;;2.83;1.90;;;;;;;9.13;48.50;102822.45;5018492;56;1136643;-73
2022/02/27 14:39:15;;;;;;;7.83;4.25;;;;;;;9.04;49.03;102819.65;5022699;56;1136570;-72
2022/02/27 14:44:22;;;;;;;7.30;3.10;;;;;;;9.02;48.59;102820.61;5022714;56;1144193;-73
2022/02/27 14:49:28;;;;;;;13.62;4.92;;;;;;;8.87;48.22;102815.40;5020234;56;1134486;-73
2022/02/27 14:54:34;;;;;;;3.47;2.22;;;;;;;8.86;49.26;102821.59;5019778;56;1136538;-72
2022/02/27 14:59:39;;;;;;;31.10;14.20;;;;;;;8.96;50.25;102819.06;5009543;56;1134623;-73
2022/02/27 15:04:45;;;;;;;10.00;4.63;;;;;;;9.41;49.06;102809.98;5011059;56;1140846;-73
2022/02/27 15:09:51;;;;;;;9.80;3.87;;;;;;;9.23;48.68;102811.95;5065460;56;1138639;-73
2022/02/27 15:14:57;;;;;;;13.77;6.53;;;;;;;9.02;48.78;102803.00;5065274;56;1134598;-73
2022/02/27 15:20:05;;;;;;;17.60;8.65;;;;;;;8.77;48.57;102799.03;5064966;56;1136653;-73
2022/02/27 15:25:11;;;;;;;30.90;10.33;;;;;;;8.77;51.31;102805.63;5065469;56;1136652;-72
2022/02/27 15:30:16;;;;;;;9.10;4.00;;;;;;;10.30;49.50;102796.91;4999064;56;1141088;-73
2022/02/27 15:35:23;;;;;;;15.37;5.73;;;;;;;11.39;46.52;102794.48;4983488;56;1138826;-72
2022/02/27 15:40:29;;;;;;;6.92;4.33;;;;;;;10.67;46.30;102787.02;4983091;57;1140697;-72
2022/02/27 15:45:35;;;;;;;9.23;4.40;;;;;;;9.83;47.81;102793.45;4991444;56;1138802;-73
2022/02/27 15:50:41;;;;;;;9.70;4.70;;;;;;;9.20;49.04;102800.63;4986183;56;1134651;-73
2022/02/27 15:55:50;;;;;;;30.73;12.20;;;;;;;8.69;49.56;102794.48;5023053;56;1134544;-72
2022/02/27 16:00:58;;;;;;;19.27;6.50;;;;;;;8.54;51.11;102793.67;4983932;56;1138814;-72
2022/02/27 16:06:05;;;;;;;19.77;7.13;;;;;;;8.23;50.51;102808.26;5057459;56;1136601;-72
2022/02/27 16:11:11;;;;;;;14.67;6.07;;;;;;;7.80;51.56;102804.72;5032910;56;1136543;-73
2022/02/27 16:16:17;;;;;;;28.90;9.75;;;;;;;7.46;51.52;102804.86;5045298;56;1136638;-73
2022/02/27 16:21:23;;;;;;;58.28;21.27;;;;;;;7.12;52.91;102804.05;5049805;56;1139779;-72
2022/02/27 16:26:29;;;;;;;53.52;20.40;;;;;;;6.81;53.52;102813.19;5065903;56;1138783;-68
2022/02/27 16:31:35;;;;;;;34.77;14.40;;;;;;;6.68;54.80;102807.38;5065537;56;1138812;-71
2022/02/27 16:36:40;;;;;;;27.58;12.35;;;;;;;6.55;55.05;102813.84;5065840;56;1138745;-72
2022/02/27 16:41:48;;;;;;;40.20;19.80;;;;;;;6.35;55.87;102810.36;5065761;56;1138761;-71
2022/02/27 16:46:54;;;;;;;100.67;49.00;;;;;;;6.21;56.37;102811.12;5065881;56;1138859;-72
2022/02/27 16:51:59;;;;;;;43.17;18.03;;;;;;;5.95;56.60;102813.90;5064785;56;1140682;-72
2022/02/27 16:57:05;;;;;;;29.53;11.53;;;;;;;5.85;57.33;102812.31;5065190;56;1138617;-69
2022/02/27 17:02:14;;;;;;;45.27;13.80;;;;;;;5.65;57.46;102815.34;5056152;56;1138871;-76
2022/02/27 17:07:20;;;;;;;40.50;12.87;;;;;;;5.49;58.20;102817.03;4991310;57;1139140;-72
2022/02/27 17:12:25;;;;;;;35.50;13.13;;;;;;;5.36;58.64;102819.00;5037846;56;1141279;-72
2022/02/27 17:17:31;;;;;;;46.77;18.40;;;;;;;5.24;59.07;102812.67;5002716;56;1138806;-75
2022/02/27 17:22:39;;;;;;;50.73;18.95;;;;;;;5.24;59.71;102816.61;5065737;56;1138820;-73
2022/02/27 17:27:44;;;;;;;67.37;28.20;;;;;;;5.28;60.25;102807.80;5064788;56;1138709;-75
2022/02/27 17:32:51;;;;;;;60.90;24.27;;;;;;;5.38;60.83;102817.22;5065685;56;1138917;-76
2022/02/27 17:37:57;;;;;;;88.33;43.63;;;;;;;5.46;61.29;102819.27;5035823;56;1138716;-75
2022/02/27 17:43:03;;;;;;;84.67;32.57;;;;;;;5.46;61.53;102808.77;5032215;57;1138892;-73
2022/02/27 17:48:11;;;;;;;55.37;17.13;;;;;;;5.43;61.74;102811.89;5032075;56;1138830;-74
2022/02/27 17:53:16;;;;;;;43.23;13.77;;;;;;;5.29;62.02;102812.16;5041012;57;1138815;-70
2022/02/27 17:58:25;;;;;;;59.53;21.95;;;;;;;5.26;62.55;102817.01;5043245;57;1138632;-71
2022/02/27 18:03:30;;;;;;;77.50;25.97;;;;;;;5.15;62.67;102816.80;5031211;57;1139040;-72
2022/02/27 18:08:36;;;;;;;38.35;14.10;;;;;;;5.08;62.98;102816.48;5012095;57;1138847;-70
2022/02/27 18:13:42;;;;;;;34.30;12.83;;;;;;;4.95;63.10;102814.08;5012235;58;1138864;-72
2022/02/27 18:18:48;;;;;;;41.57;12.97;;;;;;;4.86;63.44;102825.19;5037284;57;1138977;-73
2022/02/27 18:23:54;;;;;;;28.87;13.07;;;;;;;4.76;63.63;102832.76;5042664;56;1138829;-73
2022/02/27 18:29:01;;;;;;;35.83;12.90;;;;;;;4.63;63.90;102827.30;5042501;56;1138716;-75
2022/02/27 18:34:07;;;;;;;46.07;13.10;;;;;;;4.51;63.97;102834.92;5076946;56;1138975;-69
2022/02/27 18:39:13;;;;;;;49.23;15.80;;;;;;;4.44;64.58;102826.72;4968864;56;1138983;-72
2022/02/27 18:44:19;;;;;;;28.30;9.03;;;;;;;4.33;64.73;102836.50;4950627;57;1138960;-71
2022/02/27 18:49:24;;;;;;;41.90;16.27;;;;;;;4.18;64.95;102826.67;4931571;57;1136658;-71
2022/02/27 18:54:30;;;;;;;46.05;15.15;;;;;;;4.11;65.60;102828.97;4974114;56;1138904;-71
2022/02/27 18:59:36;;;;;;;51.00;19.70;;;;;;;4.12;65.80;102829.39;5056931;56;1138923;-72
2022/02/27 19:04:41;;;;;;;91.42;36.45;;;;;;;4.03;65.81;102827.33;5076927;56;1138787;-69
2022/02/27 19:09:48;;;;;;;86.70;32.70;;;;;;;4.00;66.43;102829.98;5065144;56;1138948;-73
2022/02/27 19:14:55;;;;;;;77.53;28.03;;;;;;;3.94;66.21;102836.18;5071275;56;1138969;-76
2022/02/27 19:20:01;;;;;;;125.87;45.40;;;;;;;3.67;65.98;102826.90;5080966;56;1138766;-71
2022/02/27 19:25:08;;;;;;;159.00;58.73;;;;;;;3.39;66.01;102825.05;5083158;56;1141027;-73
2022/02/27 19:30:14;;;;;;;136.47;54.47;;;;;;;3.33;66.65;102821.66;5075783;56;1140896;-70
2022/02/27 19:35:21;;;;;;;160.53;63.07;;;;;;;3.27;67.07;102821.70;5111462;56;1140670;-73
2022/02/27 19:40:27;;;;;;;168.87;60.27;;;;;;;3.27;67.79;102820.39;5085998;56;1140843;-70
2022/02/27 19:45:33;;;;;;;141.73;48.47;;;;;;;3.30;68.15;102814.70;5064978;56;1140906;-74
2022/02/27 19:50:39;;;;;;;172.28;58.50;;;;;;;3.29;68.51;102816.89;5082178;56;1140707;-70
2022/02/27 19:55:45;;;;;;;243.27;78.23;;;;;;;3.26;68.25;102813.43;5092562;56;1140923;-73
2022/02/27 20:00:51;;;;;;;270.47;94.30;;;;;;;3.22;68.44;102811.72;5116265;56;1140642;-72
2022/02/27 20:05:58;;;;;;;274.33;94.90;;;;;;;3.08;68.22;102811.86;5043259;56;1140778;-71
2022/02/27 20:11:05;;;;;;;219.53;79.67;;;;;;;2.94;68.89;102813.75;5060454;56;1140678;-78
2022/02/27 20:16:10;;;;;;;186.88;63.00;;;;;;;3.00;69.61;102821.11;5065808;56;1141085;-76
2022/02/27 20:21:17;;;;;;;155.77;52.53;;;;;;;3.07;69.65;102814.92;5065339;56;1140849;-77
2022/02/27 20:26:23;;;;;;;152.63;49.17;;;;;;;3.09;69.67;102818.83;5065694;56;1140537;-73
2022/02/27 20:31:29;;;;;;;138.90;48.77;;;;;;;3.08;69.74;102822.32;5065476;56;1140671;-75
2022/02/27 20:36:36;;;;;;;116.12;42.70;;;;;;;3.00;69.60;102811.95;5096320;56;1140675;-72
2022/02/27 20:41:44;;;;;;;87.17;32.17;;;;;;;2.89;69.64;102816.42;5099782;56;1140776;-71
2022/02/27 20:46:49;;;;;;;107.53;34.80;;;;;;;2.65;69.29;102817.48;5087321;56;1138695;-77
2022/02/27 20:51:56;;;;;;;95.23;31.27;;;;;;;2.53;70.14;102819.33;5055949;56;1140838;-70
2022/02/27 20:57:03;;;;;;;85.53;30.77;;;;;;;2.48;70.70;102811.52;5049224;56;1138668;-68
2022/02/27 21:02:08;;;;;;;74.17;22.10;;;;;;;2.52;71.10;102810.63;5069286;56;1138576;-73
2022/02/27 21:07:15;;;;;;;53.43;20.30;;;;;;;2.55;71.20;102807.13;5068118;56;1138699;-72
2022/02/27 21:12:20;;;;;;;46.57;17.80;;;;;;;2.34;70.58;102815.54;5043214;56;1138686;-73
2022/02/27 21:17:27;;;;;;;54.58;16.85;;;;;;;2.30;71.51;102815.12;5048480;56;1138893;-75
2022/02/27 21:22:33;;;;;;;47.80;18.12;;;;;;;2.34;72.08;102814.23;4946981;58;1138762;-75
2022/02/27 21:27:39;;;;;;;47.70;17.40;;;;;;;2.24;71.57;102811.70;4921382;58;1138827;-76
2022/02/27 21:32:47;;;;;;;51.70;23.10;;;;;;;2.03;71.49;102816.16;5102243;56;1138750;-75
2022/02/27 21:37:54;;;;;;;31.77;13.43;;;;;;;1.78;71.64;102825.00;5110179;56;1138867;-75
2022/02/27 21:43:00;;;;;;;65.03;26.87;;;;;;;1.65;72.40;102820.71;5123704;56;1138761;-75
2022/02/27 21:48:06;;;;;;;43.13;18.73;;;;;;;1.61;73.05;102822.89;5113878;56;1138783;-74
2022/02/27 21:53:12;;;;;;;27.80;11.60;;;;;;;1.62;73.34;102820.72;5087455;56;1138735;-73
2022/02/27 21:58:17;;;;;;;34.07;12.23;;;;;;;1.59;73.57;102821.59;5081412;56;1138669;-72
2022/02/27 22:03:23;;;;;;;32.80;11.63;;;;;;;1.59;73.65;102823.33;5106580;56;1255337;-72
2022/02/27 22:08:28;;;;;;;41.17;15.33;;;;;;;1.57;73.83;102818.12;5094219;56;1138903;-75
2022/02/27 22:13:35;;;;;;;31.60;13.87;;;;;;;1.57;74.10;102814.20;5025398;57;1138782;-74
2022/02/27 22:18:41;;;;;;;41.53;13.20;;;;;;;1.53;74.00;102809.03;5055273;56;1138812;-74
2022/02/27 22:23:46;;;;;;;35.08;13.20;;;;;;;1.51;74.47;102807.73;5079593;56;1138841;-74
2022/02/27 22:28:52;;;;;;;31.23;11.93;;;;;;;1.51;74.46;102808.16;5038483;56;1138743;-73
2022/02/27 22:33:58;;;;;;;37.87;12.97;;;;;;;1.46;74.63;102806.86;5090633;56;1138681;-75
2022/02/27 22:39:09;;;;;;;31.93;12.88;;;;;;;1.44;75.16;102813.83;5134651;56;1138808;-73
2022/02/27 22:44:15;;;;;;;38.73;15.40;;;;;;;1.46;74.97;102812.52;5096673;56;1138938;-74
2022/02/27 22:49:21;;;;;;;40.37;15.77;;;;;;;1.41;74.94;102808.17;5087945;56;1138839;-72
2022/02/27 22:54:27;;;;;;;44.07;18.00;;;;;;;1.30;74.97;102802.57;5091450;56;1138723;-75
2022/02/27 22:59:33;;;;;;;66.87;29.57;;;;;;;1.34;75.63;102800.39;5065499;56;1138736;-75
2022/02/27 23:10:02;;;;;;;47.43;19.90;;;;;;;1.62;76.03;102806.37;5063471;57;1138776;-74
2022/02/27 23:15:09;;;;;;;65.75;26.50;;;;;;;1.71;75.79;102800.67;5063396;57;1138824;-77
2022/02/27 23:20:15;;;;;;;69.67;28.43;;;;;;;1.73;75.61;102800.23;5071152;56;1138885;-73
2022/02/27 23:25:21;;;;;;;90.53;30.10;;;;;;;1.72;75.07;102803.71;5110908;56;1138990;-74
2022/02/27 23:30:27;;;;;;;66.33;26.03;;;;;;;1.61;74.97;102807.25;5103162;56;1138734;-73
2022/02/27 23:35:34;;;;;;;54.47;18.60;;;;;;;1.52;75.09;102802.95;5078989;56;1138952;-73
2022/02/27 23:40:39;;;;;;;52.38;19.98;;;;;;;1.47;75.00;102809.04;5063473;56;1138843;-74
2022/02/27 23:45:49;;;;;;;71.03;24.37;;;;;;;1.32;74.68;102816.03;5047942;56;1138786;-73
2022/02/27 23:50:57;;;;;;;64.33;22.70;;;;;;;1.16;74.69;102817.38;5062053;56;1138965;-76
2022/02/27 23:56:09;;;;;;;72.73;24.17;;;;;;;0.95;74.67;102813.05;5052033;56;1138756;-73
